sensor_id;sensor_type;location;lat;lon;timestamp;temperature;humidity
19878;DHT22;10101;52.204;9.910;2023-02-28T00:00:00;-0.50;1.00
19878;DHT22;10101;52.204;9.910;2023-02-28T00:02:33;-0.50;1.00
19878;DHT22;10101;52.204;9.910;2023-02-28T00:05:00;-0.50;1.00
19878;DHT22;10101;52.204;9.910;2023-02-28T00:07:29;-0.50;1.00
19878;DHT22;10101;52.204;9.910;2023-02-28T00:09:55;-0.50;1.00
19878;DHT22;10101;52.204;9.910;2023-02-28T00:12:22;-0.50;1.00
19878;DHT22;10101;52.204;9.910;2023-02-28T00:14:49;-0.50;1.00
19878;DHT22;10101;52.204;9.910;2023-02-28T00:17:17;-0.50;21.60
19878;DHT22;10101;52.204;9.910;2023-02-28T00:19:46;-0.50;76.30
19878;DHT22;10101;52.204;9.910;2023-02-28T00:22:13;-0.50;91.40
19878;DHT22;10101;52.204;9.910;2023-02-28T00:24:40;-0.60;83.30
19878;DHT22;10101;52.204;9.910;2023-02-28T00:27:07;-0.70;99.90
19878;DHT22;10101;52.204;9.910;2023-02-28T00:29:33;-0.70;99.90
19878;DHT22;10101;52.204;9.910;2023-02-28T00:32:00;-0.70;99.90
19878;DHT22;10101;52.204;9.910;2023-02-28T00:34:29;-0.80;99.90
19878;DHT22;10101;52.204;9.910;2023-02-28T00:36:55;-0.90;99.90
19878;DHT22;10101;52.204;9.910;2023-02-28T00:39:22;-0.90;99.90
19878;DHT22;10101;52.204;9.910;2023-02-28T00:41:49;-1.00;99.90
19878;DHT22;10101;52.204;9.910;2023-02-28T00:44:16;-1.10;99.90
19878;DHT22;10101;52.204;9.910;2023-02-28T00:46:43;-1.10;99.90
19878;DHT22;10101;52.204;9.910;2023-02-28T00:49:10;-1.30;99.90
19878;DHT22;10101;52.204;9.910;2023-02-28T00:51:38;-1.30;99.90
19878;DHT22;10101;52.204;9.910;2023-02-28T00:54:04;-1.50;99.90
19878;DHT22;10101;52.204;9.910;2023-02-28T00:56:31;-1.50;99.90
19878;DHT22;10101;52.204;9.910;2023-02-28T00:58:58;-1.50;99.90
19878;DHT22;10101;52.204;9.910;2023-02-28T01:01:25;-1.60;99.90
19878;DHT22;10101;52.204;9.910;2023-02-28T01:03:51;-1.70;99.90
19878;DHT22;10101;52.204;9.910;2023-02-28T01:06:18;-1.70;99.90
19878;DHT22;10101;52.204;9.910;2023-02-28T01:08:47;-1.70;1.00
19878;DHT22;10101;52.204;9.910;2023-02-28T01:11:16;-1.90;99.90
19878;DHT22;10101;52.204;9.910;2023-02-28T01:13:44;-1.90;1.00
19878;DHT22;10101;52.204;9.910;2023-02-28T01:16:12;-1.90;1.00
19878;DHT22;10101;52.204;9.910;2023-02-28T01:18:39;-1.90;1.00
19878;DHT22;10101;52.204;9.910;2023-02-28T01:21:07;-2.00;1.00
19878;DHT22;10101;52.204;9.910;2023-02-28T01:23:34;-2.10;1.00
19878;DHT22;10101;52.204;9.910;2023-02-28T01:26:05;-2.10;1.00
19878;DHT22;10101;52.204;9.910;2023-02-28T01:28:32;-2.10;1.00
19878;DHT22;10101;52.204;9.910;2023-02-28T01:31:00;-2.20;1.00
19878;DHT22;10101;52.204;9.910;2023-02-28T01:33:27;-2.30;1.00
19878;DHT22;10101;52.204;9.910;2023-02-28T01:35:58;-2.30;1.00
19878;DHT22;10101;52.204;9.910;2023-02-28T01:38:24;-2.30;1.00
19878;DHT22;10101;52.204;9.910;2023-02-28T01:40:51;-2.40;1.00
19878;DHT22;10101;52.204;9.910;2023-02-28T01:43:23;-2.40;16.70
19878;DHT22;10101;52.204;9.910;2023-02-28T01:45:50;-2.40;52.50
19878;DHT22;10101;52.204;9.910;2023-02-28T01:48:18;-2.50;99.90
19878;DHT22;10101;52.204;9.910;2023-02-28T01:50:47;-2.50;99.90
19878;DHT22;10101;52.204;9.910;2023-02-28T01:53:17;-2.60;99.90
19878;DHT22;10101;52.204;9.910;2023-02-28T01:55:47;-2.60;99.90
19878;DHT22;10101;52.204;9.910;2023-02-28T01:58:15;-2.60;99.90
19878;DHT22;10101;52.204;9.910;2023-02-28T02:00:44;-2.70;99.90
19878;DHT22;10101;52.204;9.910;2023-02-28T02:03:13;-2.70;99.90
19878;DHT22;10101;52.204;9.910;2023-02-28T02:05:41;-2.70;1.00
19878;DHT22;10101;52.204;9.910;2023-02-28T02:08:16;-2.90;99.90
19878;DHT22;10101;52.204;9.910;2023-02-28T02:10:45;-2.90;1.00
19878;DHT22;10101;52.204;9.910;2023-02-28T02:13:44;-2.80;1.00
19878;DHT22;10101;52.204;9.910;2023-02-28T02:16:24;-2.90;1.00
19878;DHT22;10101;52.204;9.910;2023-02-28T02:18:57;-2.90;1.00
19878;DHT22;10101;52.204;9.910;2023-02-28T02:21:57;-2.90;1.00
19878;DHT22;10101;52.204;9.910;2023-02-28T02:30:40;-2.90;1.00
19878;DHT22;10101;52.204;9.910;2023-02-28T02:33:37;-3.00;1.00
19878;DHT22;10101;52.204;9.910;2023-02-28T02:36:12;-3.00;1.00
19878;DHT22;10101;52.204;9.910;2023-02-28T02:38:45;-3.00;1.00
19878;DHT22;10101;52.204;9.910;2023-02-28T02:41:16;-3.00;1.00
19878;DHT22;10101;52.204;9.910;2023-02-28T02:43:47;-3.00;1.00
19878;DHT22;10101;52.204;9.910;2023-02-28T02:46:19;-3.20;1.00
19878;DHT22;10101;52.204;9.910;2023-02-28T02:48:46;-3.30;1.00
19878;DHT22;10101;52.204;9.910;2023-02-28T02:51:17;-3.30;1.00
19878;DHT22;10101;52.204;9.910;2023-02-28T02:53:48;-3.40;1.00
19878;DHT22;10101;52.204;9.910;2023-02-28T02:56:18;-3.40;1.00
19878;DHT22;10101;52.204;9.910;2023-02-28T02:58:47;-3.30;1.00
19878;DHT22;10101;52.204;9.910;2023-02-28T03:01:18;-3.20;99.90
19878;DHT22;10101;52.204;9.910;2023-02-28T03:03:55;-3.20;99.90
19878;DHT22;10101;52.204;9.910;2023-02-28T03:06:23;-3.30;99.90
19878;DHT22;10101;52.204;9.910;2023-02-28T03:08:50;-3.30;99.90
19878;DHT22;10101;52.204;9.910;2023-02-28T03:11:17;-3.30;99.90
19878;DHT22;10101;52.204;9.910;2023-02-28T03:14:15;-3.40;99.90
19878;DHT22;10101;52.204;9.910;2023-02-28T03:19:55;-3.50;1.00
19878;DHT22;10101;52.204;9.910;2023-02-28T03:22:40;-3.50;1.00
19878;DHT22;10101;52.204;9.910;2023-02-28T03:25:18;-3.40;1.00
19878;DHT22;10101;52.204;9.910;2023-02-28T03:27:52;-3.40;1.00
19878;DHT22;10101;52.204;9.910;2023-02-28T03:30:26;-3.30;1.00
19878;DHT22;10101;52.204;9.910;2023-02-28T03:32:57;-3.30;1.00
19878;DHT22;10101;52.204;9.910;2023-02-28T03:35:27;-3.50;1.00
19878;DHT22;10101;52.204;9.910;2023-02-28T03:38:00;-3.40;39.30
19878;DHT22;10101;52.204;9.910;2023-02-28T03:40:32;-3.50;1.00
19878;DHT22;10101;52.204;9.910;2023-02-28T03:43:03;-3.60;1.00
19878;DHT22;10101;52.204;9.910;2023-02-28T03:45:33;-3.60;1.00
19878;DHT22;10101;52.204;9.910;2023-02-28T03:48:05;-3.70;1.00
19878;DHT22;10101;52.204;9.910;2023-02-28T03:50:38;-3.70;1.00
19878;DHT22;10101;52.204;9.910;2023-02-28T03:53:11;-3.70;34.00
19878;DHT22;10101;52.204;9.910;2023-02-28T03:55:43;-3.70;52.80
19878;DHT22;10101;52.204;9.910;2023-02-28T03:58:15;-3.70;99.90
19878;DHT22;10101;52.204;9.910;2023-02-28T04:00:49;-3.80;99.90
19878;DHT22;10101;52.204;9.910;2023-02-28T04:03:17;-3.80;99.90
19878;DHT22;10101;52.204;9.910;2023-02-28T04:05:48;-3.80;99.90
19878;DHT22;10101;52.204;9.910;2023-02-28T04:08:17;-3.80;99.90
19878;DHT22;10101;52.204;9.910;2023-02-28T04:10:47;-3.90;99.90
19878;DHT22;10101;52.204;9.910;2023-02-28T04:13:14;-3.80;99.90
19878;DHT22;10101;52.204;9.910;2023-02-28T04:15:41;-3.90;99.90
19878;DHT22;10101;52.204;9.910;2023-02-28T04:18:08;-3.80;1.00
19878;DHT22;10101;52.204;9.910;2023-02-28T04:20:34;-3.90;1.00
19878;DHT22;10101;52.204;9.910;2023-02-28T04:23:01;-3.80;1.00
19878;DHT22;10101;52.204;9.910;2023-02-28T04:25:29;-3.90;1.00
19878;DHT22;10101;52.204;9.910;2023-02-28T04:27:56;-3.90;1.00
19878;DHT22;10101;52.204;9.910;2023-02-28T04:30:23;-3.90;1.00
19878;DHT22;10101;52.204;9.910;2023-02-28T04:32:49;-3.80;1.00
19878;DHT22;10101;52.204;9.910;2023-02-28T04:35:16;-3.70;1.00
19878;DHT22;10101;52.204;9.910;2023-02-28T04:37:43;-3.70;1.00
19878;DHT22;10101;52.204;9.910;2023-02-28T04:40:11;-3.70;1.00
19878;DHT22;10101;52.204;9.910;2023-02-28T04:42:39;-3.70;1.00
19878;DHT22;10101;52.204;9.910;2023-02-28T04:45:07;-3.60;1.00
19878;DHT22;10101;52.204;9.910;2023-02-28T04:47:35;-3.50;1.00
19878;DHT22;10101;52.204;9.910;2023-02-28T04:50:02;-3.50;44.60
19878;DHT22;10101;52.204;9.910;2023-02-28T04:52:29;-3.40;99.90
19878;DHT22;10101;52.204;9.910;2023-02-28T04:54:56;-3.30;99.90
19878;DHT22;10101;52.204;9.910;2023-02-28T04:57:23;-3.20;99.90
19878;DHT22;10101;52.204;9.910;2023-02-28T04:59:51;-3.20;1.00
19878;DHT22;10101;52.204;9.910;2023-02-28T05:02:18;-3.00;1.00
19878;DHT22;10101;52.204;9.910;2023-02-28T05:04:46;-3.00;1.00
19878;DHT22;10101;52.204;9.910;2023-02-28T05:07:13;-3.00;1.00
19878;DHT22;10101;52.204;9.910;2023-02-28T05:09:39;-2.90;1.00
19878;DHT22;10101;52.204;9.910;2023-02-28T05:12:07;-2.80;1.00
19878;DHT22;10101;52.204;9.910;2023-02-28T05:14:35;-2.80;1.00
19878;DHT22;10101;52.204;9.910;2023-02-28T05:17:03;-2.80;1.00
19878;DHT22;10101;52.204;9.910;2023-02-28T05:19:30;-2.70;1.00
19878;DHT22;10101;52.204;9.910;2023-02-28T05:21:56;-2.60;19.80
19878;DHT22;10101;52.204;9.910;2023-02-28T05:24:23;-2.60;86.60
19878;DHT22;10101;52.204;9.910;2023-02-28T05:26:51;-2.50;99.90
19878;DHT22;10101;52.204;9.910;2023-02-28T05:29:18;-2.60;99.90
19878;DHT22;10101;52.204;9.910;2023-02-28T05:31:45;-2.70;1.00
19878;DHT22;10101;52.204;9.910;2023-02-28T05:34:14;-2.80;1.00
19878;DHT22;10101;52.204;9.910;2023-02-28T05:36:41;-2.80;1.00
19878;DHT22;10101;52.204;9.910;2023-02-28T05:39:08;-2.80;1.00
19878;DHT22;10101;52.204;9.910;2023-02-28T05:41:39;-2.90;1.00
19878;DHT22;10101;52.204;9.910;2023-02-28T05:44:06;-2.80;1.00
19878;DHT22;10101;52.204;9.910;2023-02-28T05:46:33;-3.00;1.00
19878;DHT22;10101;52.204;9.910;2023-02-28T05:49:01;-3.10;1.00
19878;DHT22;10101;52.204;9.910;2023-02-28T05:51:30;-3.20;1.00
19878;DHT22;10101;52.204;9.910;2023-02-28T05:53:59;-3.20;1.00
19878;DHT22;10101;52.204;9.910;2023-02-28T05:56:25;-3.20;1.00
19878;DHT22;10101;52.204;9.910;2023-02-28T05:58:52;-3.40;99.90
19878;DHT22;10101;52.204;9.910;2023-02-28T06:01:22;-3.50;99.90
19878;DHT22;10101;52.204;9.910;2023-02-28T06:03:49;-3.50;99.90
19878;DHT22;10101;52.204;9.910;2023-02-28T06:06:16;-3.60;99.90
19878;DHT22;10101;52.204;9.910;2023-02-28T06:08:44;-3.60;99.90
19878;DHT22;10101;52.204;9.910;2023-02-28T06:11:12;-3.60;99.90
19878;DHT22;10101;52.204;9.910;2023-02-28T06:13:39;-3.70;99.90
19878;DHT22;10101;52.204;9.910;2023-02-28T06:16:07;-3.70;1.00
19878;DHT22;10101;52.204;9.910;2023-02-28T06:18:34;-3.60;1.00
19878;DHT22;10101;52.204;9.910;2023-02-28T06:21:01;-3.70;1.00
19878;DHT22;10101;52.204;9.910;2023-02-28T06:23:28;-3.70;1.00
19878;DHT22;10101;52.204;9.910;2023-02-28T06:25:56;-3.60;1.00
19878;DHT22;10101;52.204;9.910;2023-02-28T06:28:24;-3.60;1.00
19878;DHT22;10101;52.204;9.910;2023-02-28T06:30:51;-3.70;1.00
19878;DHT22;10101;52.204;9.910;2023-02-28T06:33:18;-3.90;1.00
19878;DHT22;10101;52.204;9.910;2023-02-28T06:35:46;-3.70;1.00
19878;DHT22;10101;52.204;9.910;2023-02-28T06:38:13;-3.80;1.00
19878;DHT22;10101;52.204;9.910;2023-02-28T06:40:40;-3.70;75.90
19878;DHT22;10101;52.204;9.910;2023-02-28T06:43:08;-3.70;70.90
19878;DHT22;10101;52.204;9.910;2023-02-28T06:45:37;-3.80;1.00
19878;DHT22;10101;52.204;9.910;2023-02-28T06:48:04;-3.80;80.70
19878;DHT22;10101;52.204;9.910;2023-02-28T06:50:31;-3.70;99.90
19878;DHT22;10101;52.204;9.910;2023-02-28T06:52:58;-3.70;99.90
19878;DHT22;10101;52.204;9.910;2023-02-28T06:55:24;-3.60;1.00
19878;DHT22;10101;52.204;9.910;2023-02-28T06:57:51;-3.50;1.00
19878;DHT22;10101;52.204;9.910;2023-02-28T07:00:22;-3.50;1.00
19878;DHT22;10101;52.204;9.910;2023-02-28T07:02:48;-3.40;1.00
19878;DHT22;10101;52.204;9.910;2023-02-28T07:05:15;-3.40;1.00
19878;DHT22;10101;52.204;9.910;2023-02-28T07:07:42;-3.30;99.90
19878;DHT22;10101;52.204;9.910;2023-02-28T07:10:12;-3.30;80.00
19878;DHT22;10101;52.204;9.910;2023-02-28T07:12:42;-3.10;99.90
19878;DHT22;10101;52.204;9.910;2023-02-28T07:15:09;-3.10;99.90
19878;DHT22;10101;52.204;9.910;2023-02-28T07:17:37;-3.10;99.90
19878;DHT22;10101;52.204;9.910;2023-02-28T07:20:05;-3.00;99.90
19878;DHT22;10101;52.204;9.910;2023-02-28T07:22:32;-3.00;99.90
19878;DHT22;10101;52.204;9.910;2023-02-28T07:24:58;-2.90;99.90
19878;DHT22;10101;52.204;9.910;2023-02-28T07:27:25;-2.90;99.90
19878;DHT22;10101;52.204;9.910;2023-02-28T07:29:52;-2.70;1.00
19878;DHT22;10101;52.204;9.910;2023-02-28T07:32:20;-2.70;1.00
19878;DHT22;10101;52.204;9.910;2023-02-28T07:34:48;-2.60;1.00
19878;DHT22;10101;52.204;9.910;2023-02-28T07:37:15;-2.50;1.00
19878;DHT22;10101;52.204;9.910;2023-02-28T07:39:42;-2.60;1.00
19878;DHT22;10101;52.204;9.910;2023-02-28T07:42:08;-2.50;1.00
19878;DHT22;10101;52.204;9.910;2023-02-28T07:44:37;-2.50;1.00
19878;DHT22;10101;52.204;9.910;2023-02-28T07:47:06;-2.30;1.00
19878;DHT22;10101;52.204;9.910;2023-02-28T07:49:34;-2.30;1.00
19878;DHT22;10101;52.204;9.910;2023-02-28T07:52:02;-2.20;1.00
19878;DHT22;10101;52.204;9.910;2023-02-28T07:54:29;-2.20;1.00
19878;DHT22;10101;52.204;9.910;2023-02-28T07:56:56;-2.10;1.00
19878;DHT22;10101;52.204;9.910;2023-02-28T07:59:23;-2.10;1.00
19878;DHT22;10101;52.204;9.910;2023-02-28T08:01:50;-1.90;1.00
19878;DHT22;10101;52.204;9.910;2023-02-28T08:04:17;-1.80;1.00
19878;DHT22;10101;52.204;9.910;2023-02-28T08:06:44;-1.70;1.00
19878;DHT22;10101;52.204;9.910;2023-02-28T08:09:13;-1.50;1.00
19878;DHT22;10101;52.204;9.910;2023-02-28T08:11:39;-1.40;41.30
19878;DHT22;10101;52.204;9.910;2023-02-28T08:14:06;-1.20;99.90
19878;DHT22;10101;52.204;9.910;2023-02-28T08:16:33;-1.20;60.70
19878;DHT22;10101;52.204;9.910;2023-02-28T08:19:00;-1.00;94.20
19878;DHT22;10101;52.204;9.910;2023-02-28T08:21:26;-0.70;99.90
19878;DHT22;10101;52.204;9.910;2023-02-28T08:23:53;-0.80;1.00
19878;DHT22;10101;52.204;9.910;2023-02-28T08:26:21;-0.70;99.90
19878;DHT22;10101;52.204;9.910;2023-02-28T08:28:48;-0.40;1.00
19878;DHT22;10101;52.204;9.910;2023-02-28T08:31:16;0.00;1.00
19878;DHT22;10101;52.204;9.910;2023-02-28T08:33:43;0.30;27.10
19878;DHT22;10101;52.204;9.910;2023-02-28T08:36:11;0.50;57.20
19878;DHT22;10101;52.204;9.910;2023-02-28T08:38:38;0.70;15.20
19878;DHT22;10101;52.204;9.910;2023-02-28T08:41:06;0.70;1.00
19878;DHT22;10101;52.204;9.910;2023-02-28T08:43:35;0.90;1.00
19878;DHT22;10101;52.204;9.910;2023-02-28T08:46:03;1.00;99.90
19878;DHT22;10101;52.204;9.910;2023-02-28T08:48:32;1.30;99.90
19878;DHT22;10101;52.204;9.910;2023-02-28T08:51:01;1.50;99.90
19878;DHT22;10101;52.204;9.910;2023-02-28T08:53:28;1.70;94.40
19878;DHT22;10101;52.204;9.910;2023-02-28T08:55:57;1.70;1.00
19878;DHT22;10101;52.204;9.910;2023-02-28T08:58:24;1.70;99.90
19878;DHT22;10101;52.204;9.910;2023-02-28T09:00:52;1.70;1.00
19878;DHT22;10101;52.204;9.910;2023-02-28T09:03:19;2.00;1.00
19878;DHT22;10101;52.204;9.910;2023-02-28T09:05:53;2.20;1.00
19878;DHT22;10101;52.204;9.910;2023-02-28T09:08:20;2.40;99.90
19878;DHT22;10101;52.204;9.910;2023-02-28T09:10:46;2.30;1.00
19878;DHT22;10101;52.204;9.910;2023-02-28T09:13:13;2.30;99.90
19878;DHT22;10101;52.204;9.910;2023-02-28T09:15:40;2.30;99.90
19878;DHT22;10101;52.204;9.910;2023-02-28T09:18:08;2.30;1.00
19878;DHT22;10101;52.204;9.910;2023-02-28T09:20:37;2.40;1.00
19878;DHT22;10101;52.204;9.910;2023-02-28T09:23:04;2.50;99.90
19878;DHT22;10101;52.204;9.910;2023-02-28T09:25:30;2.70;96.60
19878;DHT22;10101;52.204;9.910;2023-02-28T09:27:57;3.00;1.00
19878;DHT22;10101;52.204;9.910;2023-02-28T09:30:24;3.10;1.00
19878;DHT22;10101;52.204;9.910;2023-02-28T09:32:51;3.10;1.00
19878;DHT22;10101;52.204;9.910;2023-02-28T09:35:20;3.30;99.90
19878;DHT22;10101;52.204;9.910;2023-02-28T09:37:48;3.30;53.30
19878;DHT22;10101;52.204;9.910;2023-02-28T09:40:15;3.40;1.00
19878;DHT22;10101;52.204;9.910;2023-02-28T09:42:46;3.00;1.00
19878;DHT22;10101;52.204;9.910;2023-02-28T09:45:24;3.20;99.90
19878;DHT22;10101;52.204;9.910;2023-02-28T09:47:52;3.10;99.90
19878;DHT22;10101;52.204;9.910;2023-02-28T09:50:29;3.20;1.00
19878;DHT22;10101;52.204;9.910;2023-02-28T09:52:59;3.20;1.00
19878;DHT22;10101;52.204;9.910;2023-02-28T09:55:30;3.30;1.00
19878;DHT22;10101;52.204;9.910;2023-02-28T09:57:58;3.40;1.00
19878;DHT22;10101;52.204;9.910;2023-02-28T10:00:32;3.40;99.90
19878;DHT22;10101;52.204;9.910;2023-02-28T10:03:24;3.60;99.90
19878;DHT22;10101;52.204;9.910;2023-02-28T10:05:57;3.60;99.90
19878;DHT22;10101;52.204;9.910;2023-02-28T10:08:27;3.60;39.70
19878;DHT22;10101;52.204;9.910;2023-02-28T10:10:57;3.80;1.00
19878;DHT22;10101;52.204;9.910;2023-02-28T10:13:28;4.00;1.00
19878;DHT22;10101;52.204;9.910;2023-02-28T10:16:02;4.00;1.00
19878;DHT22;10101;52.204;9.910;2023-02-28T10:18:34;4.20;1.00
19878;DHT22;10101;52.204;9.910;2023-02-28T10:21:06;4.20;1.00
19878;DHT22;10101;52.204;9.910;2023-02-28T10:23:37;4.10;1.00
19878;DHT22;10101;52.204;9.910;2023-02-28T10:26:11;4.20;1.00
19878;DHT22;10101;52.204;9.910;2023-02-28T10:28:38;4.40;99.90
19878;DHT22;10101;52.204;9.910;2023-02-28T10:31:08;4.20;99.90
19878;DHT22;10101;52.204;9.910;2023-02-28T10:33:37;4.30;99.90
19878;DHT22;10101;52.204;9.910;2023-02-28T10:36:12;4.10;99.90
19878;DHT22;10101;52.204;9.910;2023-02-28T10:38:40;4.20;99.90
19878;DHT22;10101;52.204;9.910;2023-02-28T10:41:08;4.50;62.70
19878;DHT22;10101;52.204;9.910;2023-02-28T10:43:36;4.20;26.70
19878;DHT22;10101;52.204;9.910;2023-02-28T10:46:09;3.90;1.00
19878;DHT22;10101;52.204;9.910;2023-02-28T10:48:41;3.80;1.00
19878;DHT22;10101;52.204;9.910;2023-02-28T10:51:12;4.20;1.00
19878;DHT22;10101;52.204;9.910;2023-02-28T10:53:45;4.40;1.00
19878;DHT22;10101;52.204;9.910;2023-02-28T10:56:16;4.50;1.00
19878;DHT22;10101;52.204;9.910;2023-02-28T10:58:49;4.70;1.00
19878;DHT22;10101;52.204;9.910;2023-02-28T11:01:19;4.70;1.00
19878;DHT22;10101;52.204;9.910;2023-02-28T11:03:46;4.40;1.00
19878;DHT22;10101;52.204;9.910;2023-02-28T11:06:17;4.30;1.00
19878;DHT22;10101;52.204;9.910;2023-02-28T11:08:47;4.60;1.00
19878;DHT22;10101;52.204;9.910;2023-02-28T11:11:14;4.90;1.00
19878;DHT22;10101;52.204;9.910;2023-02-28T11:13:44;4.80;1.00
19878;DHT22;10101;52.204;9.910;2023-02-28T11:16:13;4.70;1.00
19878;DHT22;10101;52.204;9.910;2023-02-28T11:18:43;5.20;1.00
19878;DHT22;10101;52.204;9.910;2023-02-28T11:21:17;5.70;1.00
19878;DHT22;10101;52.204;9.910;2023-02-28T11:23:45;6.30;1.00
19878;DHT22;10101;52.204;9.910;2023-02-28T11:26:12;6.60;1.00
19878;DHT22;10101;52.204;9.910;2023-02-28T11:28:41;6.40;1.00
19878;DHT22;10101;52.204;9.910;2023-02-28T11:31:18;6.30;1.00
19878;DHT22;10101;52.204;9.910;2023-02-28T11:33:48;6.20;1.00
19878;DHT22;10101;52.204;9.910;2023-02-28T11:36:20;5.90;99.90
19878;DHT22;10101;52.204;9.910;2023-02-28T11:38:50;6.20;99.90
19878;DHT22;10101;52.204;9.910;2023-02-28T11:44:23;5.60;99.90
19878;DHT22;10101;52.204;9.910;2023-02-28T11:46:54;5.60;99.90
19878;DHT22;10101;52.204;9.910;2023-02-28T11:49:31;5.60;65.60
19878;DHT22;10101;52.204;9.910;2023-02-28T11:52:06;5.70;38.80
19878;DHT22;10101;52.204;9.910;2023-02-28T11:55:00;5.70;1.00
19878;DHT22;10101;52.204;9.910;2023-02-28T11:57:35;6.20;1.00
19878;DHT22;10101;52.204;9.910;2023-02-28T12:00:11;6.20;1.00
19878;DHT22;10101;52.204;9.910;2023-02-28T12:02:55;6.90;1.00
19878;DHT22;10101;52.204;9.910;2023-02-28T12:05:31;6.90;99.90
19878;DHT22;10101;52.204;9.910;2023-02-28T12:08:14;7.50;99.40
19878;DHT22;10101;52.204;9.910;2023-02-28T12:10:51;7.30;73.00
19878;DHT22;10101;52.204;9.910;2023-02-28T12:13:24;7.90;1.00
19878;DHT22;10101;52.204;9.910;2023-02-28T12:16:17;7.70;1.00
19878;DHT22;10101;52.204;9.910;2023-02-28T12:19:00;8.00;1.00
19878;DHT22;10101;52.204;9.910;2023-02-28T12:21:36;7.80;1.00
19878;DHT22;10101;52.204;9.910;2023-02-28T12:24:32;7.80;1.00
19878;DHT22;10101;52.204;9.910;2023-02-28T12:27:09;7.40;1.00
19878;DHT22;10101;52.204;9.910;2023-02-28T12:29:43;7.50;99.90
19878;DHT22;10101;52.204;9.910;2023-02-28T12:32:16;7.20;99.90
19878;DHT22;10101;52.204;9.910;2023-02-28T12:34:47;7.20;99.90
19878;DHT22;10101;52.204;9.910;2023-02-28T12:37:17;7.00;99.90
19878;DHT22;10101;52.204;9.910;2023-02-28T12:39:54;7.50;1.00
19878;DHT22;10101;52.204;9.910;2023-02-28T12:42:27;7.40;1.00
19878;DHT22;10101;52.204;9.910;2023-02-28T12:44:58;7.20;1.00
19878;DHT22;10101;52.204;9.910;2023-02-28T12:47:26;7.00;1.00
19878;DHT22;10101;52.204;9.910;2023-02-28T12:49:56;7.10;1.00
19878;DHT22;10101;52.204;9.910;2023-02-28T12:52:31;7.10;1.00
19878;DHT22;10101;52.204;9.910;2023-02-28T12:55:07;6.90;1.00
19878;DHT22;10101;52.204;9.910;2023-02-28T12:57:42;7.00;1.00
19878;DHT22;10101;52.204;9.910;2023-02-28T13:00:14;6.70;1.00
19878;DHT22;10101;52.204;9.910;2023-02-28T13:03:04;6.50;1.00
19878;DHT22;10101;52.204;9.910;2023-02-28T13:08:57;6.20;99.90
19878;DHT22;10101;52.204;9.910;2023-02-28T13:11:29;5.90;99.90
19878;DHT22;10101;52.204;9.910;2023-02-28T13:14:02;5.60;99.90
19878;DHT22;10101;52.204;9.910;2023-02-28T13:16:56;5.20;62.20
19878;DHT22;10101;52.204;9.910;2023-02-28T13:19:25;5.40;30.30
19878;DHT22;10101;52.204;9.910;2023-02-28T13:21:52;5.20;55.60
19878;DHT22;10101;52.204;9.910;2023-02-28T13:24:52;5.00;27.50
19878;DHT22;10101;52.204;9.910;2023-02-28T13:27:35;4.80;1.00
19878;DHT22;10101;52.204;9.910;2023-02-28T13:33:25;4.90;1.00
19878;DHT22;10101;52.204;9.910;2023-02-28T13:36:09;4.90;1.00
19878;DHT22;10101;52.204;9.910;2023-02-28T13:38:41;4.90;1.00
19878;DHT22;10101;52.204;9.910;2023-02-28T13:41:43;5.00;1.00
19878;DHT22;10101;52.204;9.910;2023-02-28T13:44:13;5.00;1.00
19878;DHT22;10101;52.204;9.910;2023-02-28T13:47:20;5.00;1.00
19878;DHT22;10101;52.204;9.910;2023-02-28T13:49:48;5.00;1.00
19878;DHT22;10101;52.204;9.910;2023-02-28T13:52:18;4.90;1.00
19878;DHT22;10101;52.204;9.910;2023-02-28T13:57:53;5.00;1.00
19878;DHT22;10101;52.204;9.910;2023-02-28T14:00:35;5.00;1.00
19878;DHT22;10101;52.204;9.910;2023-02-28T14:03:26;5.00;1.00
19878;DHT22;10101;52.204;9.910;2023-02-28T14:06:25;5.10;1.00
19878;DHT22;10101;52.204;9.910;2023-02-28T14:08:57;5.00;1.00
19878;DHT22;10101;52.204;9.910;2023-02-28T14:11:31;5.10;1.00
19878;DHT22;10101;52.204;9.910;2023-02-28T14:13:59;5.00;1.00
19878;DHT22;10101;52.204;9.910;2023-02-28T14:16:36;5.10;1.00
19878;DHT22;10101;52.204;9.910;2023-02-28T14:19:11;5.10;1.00
19878;DHT22;10101;52.204;9.910;2023-02-28T14:21:46;5.10;1.00
19878;DHT22;10101;52.204;9.910;2023-02-28T14:27:29;5.20;1.00
19878;DHT22;10101;52.204;9.910;2023-02-28T14:33:25;5.20;1.00
19878;DHT22;10101;52.204;9.910;2023-02-28T14:36:04;5.20;1.00
19878;DHT22;10101;52.204;9.910;2023-02-28T14:38:36;5.20;1.00
19878;DHT22;10101;52.204;9.910;2023-02-28T14:41:14;5.30;1.00
19878;DHT22;10101;52.204;9.910;2023-02-28T14:43:49;5.30;1.00
19878;DHT22;10101;52.204;9.910;2023-02-28T14:46:17;5.40;1.00
19878;DHT22;10101;52.204;9.910;2023-02-28T14:48:47;5.40;1.00
19878;DHT22;10101;52.204;9.910;2023-02-28T14:51:19;5.40;1.00
19878;DHT22;10101;52.204;9.910;2023-02-28T14:53:50;5.40;1.00
19878;DHT22;10101;52.204;9.910;2023-02-28T14:56:24;5.50;1.00
19878;DHT22;10101;52.204;9.910;2023-02-28T14:58:52;5.70;1.00
19878;DHT22;10101;52.204;9.910;2023-02-28T15:01:20;5.80;1.00
19878;DHT22;10101;52.204;9.910;2023-02-28T15:03:57;6.00;1.00
19878;DHT22;10101;52.204;9.910;2023-02-28T15:06:24;8.70;1.00
19878;DHT22;10101;52.204;9.910;2023-02-28T15:09:07;10.70;99.90
19878;DHT22;10101;52.204;9.910;2023-02-28T15:11:35;12.90;95.20
19878;DHT22;10101;52.204;9.910;2023-02-28T15:14:02;13.70;99.90
19878;DHT22;10101;52.204;9.910;2023-02-28T15:16:31;13.00;99.90
19878;DHT22;10101;52.204;9.910;2023-02-28T15:19:01;11.40;99.90
19878;DHT22;10101;52.204;9.910;2023-02-28T15:21:31;10.80;99.90
19878;DHT22;10101;52.204;9.910;2023-02-28T15:24:01;11.50;99.90
19878;DHT22;10101;52.204;9.910;2023-02-28T15:26:32;10.70;16.60
19878;DHT22;10101;52.204;9.910;2023-02-28T15:29:01;11.00;1.60
19878;DHT22;10101;52.204;9.910;2023-02-28T15:31:30;11.00;1.00
19878;DHT22;10101;52.204;9.910;2023-02-28T15:34:04;10.90;1.00
19878;DHT22;10101;52.204;9.910;2023-02-28T15:36:33;12.80;1.00
19878;DHT22;10101;52.204;9.910;2023-02-28T15:39:03;12.70;1.00
19878;DHT22;10101;52.204;9.910;2023-02-28T15:41:44;11.90;1.00
19878;DHT22;10101;52.204;9.910;2023-02-28T15:44:23;12.20;1.00
19878;DHT22;10101;52.204;9.910;2023-02-28T15:46:58;10.40;1.00
19878;DHT22;10101;52.204;9.910;2023-02-28T15:49:26;9.70;1.00
19878;DHT22;10101;52.204;9.910;2023-02-28T15:51:56;10.00;1.00
19878;DHT22;10101;52.204;9.910;2023-02-28T15:54:27;9.90;1.00
19878;DHT22;10101;52.204;9.910;2023-02-28T15:56:56;9.20;1.00
19878;DHT22;10101;52.204;9.910;2023-02-28T15:59:26;8.50;1.00
19878;DHT22;10101;52.204;9.910;2023-02-28T16:02:18;8.40;99.90
19878;DHT22;10101;52.204;9.910;2023-02-28T16:05:02;7.30;99.90
19878;DHT22;10101;52.204;9.910;2023-02-28T16:07:41;6.40;99.90
19878;DHT22;10101;52.204;9.910;2023-02-28T16:10:11;6.10;99.90
19878;DHT22;10101;52.204;9.910;2023-02-28T16:12:40;5.90;99.90
19878;DHT22;10101;52.204;9.910;2023-02-28T16:15:14;5.60;99.90
19878;DHT22;10101;52.204;9.910;2023-02-28T16:17:43;5.40;1.00
19878;DHT22;10101;52.204;9.910;2023-02-28T16:20:14;5.40;1.00
19878;DHT22;10101;52.204;9.910;2023-02-28T16:22:42;5.20;1.00
19878;DHT22;10101;52.204;9.910;2023-02-28T16:25:11;4.90;1.00
19878;DHT22;10101;52.204;9.910;2023-02-28T16:27:38;4.70;1.00
19878;DHT22;10101;52.204;9.910;2023-02-28T16:30:18;4.60;1.00
19878;DHT22;10101;52.204;9.910;2023-02-28T16:32:45;4.50;1.00
19878;DHT22;10101;52.204;9.910;2023-02-28T16:35:13;4.10;1.00
19878;DHT22;10101;52.204;9.910;2023-02-28T16:37:40;4.00;1.00